METAR Data
IDs: Format: Raw Decoded Include TAF

Data at: 0026 UTC 25 Apr 2019

METAR for:KCCY (Charles City/NE Iowa, IA, US)
Text:KCCY 250015Z AUTO 17011KT 10SM BKN110 17/09 A2979 RMK AO2
Temperature: 17.0°C ( 63°F)
Dewpoint: 9.0°C ( 48°F) [RH = 59%]
Pressure (altimeter):29.79 inches Hg (1008.9 mb)
Winds:from the S (170 degrees) at 13 MPH (11 knots; 5.7 m/s)
Visibility:10 or more sm (16+ km)
Ceiling:11000 feet AGL
Clouds: broken clouds at 11000 feet AGL
QC Flag:automated observation with no human augmentation